Terminal Aerodrome Forecast
Issued by NWS Paducah, KY

Home | Current Version | Previous Version | Text Only | Print | Product List | Glossary On
Versions: 1 2 3 4 5 6 7 8 9 10 11 12 13 14 15 16 17 18 19 20 21 22 23
000
FTUS43 KPAH 270200 AAA
TAFEVV
TAF AMD
KEVV 270224Z 2702/2724 VRB03KT P6SM SCT020 BKN035
     FM270600 01002KT P6SM BKN020
      TEMPO 2709/2713 5SM BR BKN009
     FM271500 36006KT P6SM BKN020=

USA.gov is the U.S. government's official web portal to all federal, state and local government web resources and services.